sensor_id;sensor_type;location;lat;lon;timestamp;temperature;humidity
20690;DHT22;10504;48.762;8.996;2024-03-08T00:00:34;3.90;99.90
20690;DHT22;10504;48.762;8.996;2024-03-08T00:03:00;3.90;99.90
20690;DHT22;10504;48.762;8.996;2024-03-08T00:05:27;3.90;99.90
20690;DHT22;10504;48.762;8.996;2024-03-08T00:07:53;3.80;99.90
20690;DHT22;10504;48.762;8.996;2024-03-08T00:10:19;3.80;99.90
20690;DHT22;10504;48.762;8.996;2024-03-08T00:12:46;3.80;99.90
20690;DHT22;10504;48.762;8.996;2024-03-08T00:15:14;3.80;99.90
20690;DHT22;10504;48.762;8.996;2024-03-08T00:17:40;3.80;99.90
20690;DHT22;10504;48.762;8.996;2024-03-08T00:20:07;3.80;99.90
20690;DHT22;10504;48.762;8.996;2024-03-08T00:22:36;3.80;99.90
20690;DHT22;10504;48.762;8.996;2024-03-08T00:25:03;3.80;99.90
20690;DHT22;10504;48.762;8.996;2024-03-08T00:27:29;3.80;99.90
20690;DHT22;10504;48.762;8.996;2024-03-08T00:29:56;3.70;99.90
20690;DHT22;10504;48.762;8.996;2024-03-08T00:32:22;3.80;99.90
20690;DHT22;10504;48.762;8.996;2024-03-08T00:34:50;3.70;99.90
20690;DHT22;10504;48.762;8.996;2024-03-08T00:37:17;3.70;99.90
20690;DHT22;10504;48.762;8.996;2024-03-08T00:39:43;3.70;99.90
20690;DHT22;10504;48.762;8.996;2024-03-08T00:42:09;3.70;99.90
20690;DHT22;10504;48.762;8.996;2024-03-08T00:44:34;3.70;99.90
20690;DHT22;10504;48.762;8.996;2024-03-08T00:47:00;3.70;99.90
20690;DHT22;10504;48.762;8.996;2024-03-08T00:49:25;3.70;99.90
20690;DHT22;10504;48.762;8.996;2024-03-08T00:51:51;3.70;99.90
20690;DHT22;10504;48.762;8.996;2024-03-08T00:54:17;3.70;99.90
20690;DHT22;10504;48.762;8.996;2024-03-08T00:56:42;3.70;99.90
20690;DHT22;10504;48.762;8.996;2024-03-08T00:59:08;3.70;99.90
20690;DHT22;10504;48.762;8.996;2024-03-08T01:01:33;3.70;99.90
20690;DHT22;10504;48.762;8.996;2024-03-08T01:03:59;3.70;99.90
20690;DHT22;10504;48.762;8.996;2024-03-08T01:06:25;3.70;99.90
20690;DHT22;10504;48.762;8.996;2024-03-08T01:08:50;3.70;99.90
20690;DHT22;10504;48.762;8.996;2024-03-08T01:11:18;3.70;99.90
20690;DHT22;10504;48.762;8.996;2024-03-08T01:13:44;3.70;99.90
20690;DHT22;10504;48.762;8.996;2024-03-08T01:16:13;3.60;99.90
20690;DHT22;10504;48.762;8.996;2024-03-08T01:18:38;3.60;99.90
20690;DHT22;10504;48.762;8.996;2024-03-08T01:21:04;3.70;99.90
20690;DHT22;10504;48.762;8.996;2024-03-08T01:23:30;3.60;99.90
20690;DHT22;10504;48.762;8.996;2024-03-08T01:25:55;3.60;99.90
20690;DHT22;10504;48.762;8.996;2024-03-08T01:28:24;3.60;99.90
20690;DHT22;10504;48.762;8.996;2024-03-08T01:30:50;3.60;99.90
20690;DHT22;10504;48.762;8.996;2024-03-08T01:33:21;3.60;99.90
20690;DHT22;10504;48.762;8.996;2024-03-08T01:35:48;3.60;99.90
20690;DHT22;10504;48.762;8.996;2024-03-08T01:38:13;3.60;99.90
20690;DHT22;10504;48.762;8.996;2024-03-08T01:40:39;3.60;99.90
20690;DHT22;10504;48.762;8.996;2024-03-08T01:43:25;3.50;99.90
20690;DHT22;10504;48.762;8.996;2024-03-08T01:45:55;3.50;99.90
20690;DHT22;10504;48.762;8.996;2024-03-08T01:48:21;3.50;99.90
20690;DHT22;10504;48.762;8.996;2024-03-08T01:50:50;3.50;99.90
20690;DHT22;10504;48.762;8.996;2024-03-08T01:53:18;3.50;99.90
20690;DHT22;10504;48.762;8.996;2024-03-08T01:55:46;3.50;99.90
20690;DHT22;10504;48.762;8.996;2024-03-08T01:58:13;3.50;99.90
20690;DHT22;10504;48.762;8.996;2024-03-08T02:00:43;3.50;99.90
20690;DHT22;10504;48.762;8.996;2024-03-08T02:03:09;3.50;99.90
20690;DHT22;10504;48.762;8.996;2024-03-08T02:05:36;3.50;99.90
20690;DHT22;10504;48.762;8.996;2024-03-08T02:08:04;3.50;99.90
20690;DHT22;10504;48.762;8.996;2024-03-08T02:10:35;3.50;99.90
20690;DHT22;10504;48.762;8.996;2024-03-08T02:13:04;3.50;99.90
20690;DHT22;10504;48.762;8.996;2024-03-08T02:18:20;3.40;99.90
20690;DHT22;10504;48.762;8.996;2024-03-08T02:20:51;3.40;99.90
20690;DHT22;10504;48.762;8.996;2024-03-08T02:23:18;3.40;99.90
20690;DHT22;10504;48.762;8.996;2024-03-08T02:25:44;3.40;99.90
20690;DHT22;10504;48.762;8.996;2024-03-08T02:28:11;3.30;99.90
20690;DHT22;10504;48.762;8.996;2024-03-08T02:30:38;3.40;99.90
20690;DHT22;10504;48.762;8.996;2024-03-08T02:33:04;3.40;99.90
20690;DHT22;10504;48.762;8.996;2024-03-08T02:35:30;3.40;99.90
20690;DHT22;10504;48.762;8.996;2024-03-08T02:37:56;3.30;99.90
20690;DHT22;10504;48.762;8.996;2024-03-08T02:40:21;3.30;99.90
20690;DHT22;10504;48.762;8.996;2024-03-08T02:42:47;3.40;99.90
20690;DHT22;10504;48.762;8.996;2024-03-08T02:45:13;3.30;99.90
20690;DHT22;10504;48.762;8.996;2024-03-08T02:47:39;3.30;99.90
20690;DHT22;10504;48.762;8.996;2024-03-08T02:50:05;3.30;99.90
20690;DHT22;10504;48.762;8.996;2024-03-08T02:52:33;3.30;99.90
20690;DHT22;10504;48.762;8.996;2024-03-08T02:54:59;3.30;99.90
20690;DHT22;10504;48.762;8.996;2024-03-08T02:57:25;3.30;99.90
20690;DHT22;10504;48.762;8.996;2024-03-08T02:59:50;3.30;99.90
20690;DHT22;10504;48.762;8.996;2024-03-08T03:02:16;3.20;99.90
20690;DHT22;10504;48.762;8.996;2024-03-08T03:04:42;3.20;99.90
20690;DHT22;10504;48.762;8.996;2024-03-08T03:07:08;3.20;99.90
20690;DHT22;10504;48.762;8.996;2024-03-08T03:09:34;3.20;99.90
20690;DHT22;10504;48.762;8.996;2024-03-08T03:12:00;3.20;99.90
20690;DHT22;10504;48.762;8.996;2024-03-08T03:14:26;3.20;99.90
20690;DHT22;10504;48.762;8.996;2024-03-08T03:16:52;3.20;99.90
20690;DHT22;10504;48.762;8.996;2024-03-08T03:19:18;3.20;99.90
20690;DHT22;10504;48.762;8.996;2024-03-08T03:21:44;3.20;99.90
20690;DHT22;10504;48.762;8.996;2024-03-08T03:24:09;3.10;99.90
20690;DHT22;10504;48.762;8.996;2024-03-08T03:26:39;3.20;99.90
20690;DHT22;10504;48.762;8.996;2024-03-08T03:29:06;3.10;99.90
20690;DHT22;10504;48.762;8.996;2024-03-08T03:31:34;3.10;99.90
20690;DHT22;10504;48.762;8.996;2024-03-08T03:34:00;3.10;99.90
20690;DHT22;10504;48.762;8.996;2024-03-08T03:36:29;3.10;99.90
20690;DHT22;10504;48.762;8.996;2024-03-08T03:38:55;3.10;99.90
20690;DHT22;10504;48.762;8.996;2024-03-08T03:41:38;3.10;99.90
20690;DHT22;10504;48.762;8.996;2024-03-08T03:44:04;3.10;99.90
20690;DHT22;10504;48.762;8.996;2024-03-08T03:46:32;3.10;99.90
20690;DHT22;10504;48.762;8.996;2024-03-08T03:48:58;3.00;99.90
20690;DHT22;10504;48.762;8.996;2024-03-08T03:51:24;3.00;99.90
20690;DHT22;10504;48.762;8.996;2024-03-08T03:53:50;3.00;99.90
20690;DHT22;10504;48.762;8.996;2024-03-08T03:56:15;3.00;99.90
20690;DHT22;10504;48.762;8.996;2024-03-08T03:58:41;3.00;99.90
20690;DHT22;10504;48.762;8.996;2024-03-08T04:01:08;3.00;99.90
20690;DHT22;10504;48.762;8.996;2024-03-08T04:03:35;2.90;99.90
20690;DHT22;10504;48.762;8.996;2024-03-08T04:06:00;2.90;99.90
20690;DHT22;10504;48.762;8.996;2024-03-08T04:08:27;2.90;99.90
20690;DHT22;10504;48.762;8.996;2024-03-08T04:10:52;2.90;99.90
20690;DHT22;10504;48.762;8.996;2024-03-08T04:13:18;2.80;99.90
20690;DHT22;10504;48.762;8.996;2024-03-08T04:15:46;2.90;99.90
20690;DHT22;10504;48.762;8.996;2024-03-08T04:18:13;2.80;99.90
20690;DHT22;10504;48.762;8.996;2024-03-08T04:20:39;2.80;99.90
20690;DHT22;10504;48.762;8.996;2024-03-08T04:23:06;2.80;99.90
20690;DHT22;10504;48.762;8.996;2024-03-08T04:25:31;2.80;99.90
20690;DHT22;10504;48.762;8.996;2024-03-08T04:27:57;2.80;99.90
20690;DHT22;10504;48.762;8.996;2024-03-08T04:30:23;2.70;99.90
20690;DHT22;10504;48.762;8.996;2024-03-08T04:32:49;2.70;99.90
20690;DHT22;10504;48.762;8.996;2024-03-08T04:35:15;2.70;99.90
20690;DHT22;10504;48.762;8.996;2024-03-08T04:37:41;2.70;99.90
20690;DHT22;10504;48.762;8.996;2024-03-08T04:40:07;2.60;99.90
20690;DHT22;10504;48.762;8.996;2024-03-08T04:42:33;2.60;99.90
20690;DHT22;10504;48.762;8.996;2024-03-08T04:44:59;2.60;99.90
20690;DHT22;10504;48.762;8.996;2024-03-08T04:47:25;2.60;99.90
20690;DHT22;10504;48.762;8.996;2024-03-08T04:49:51;2.60;99.90
20690;DHT22;10504;48.762;8.996;2024-03-08T04:52:17;2.60;99.90
20690;DHT22;10504;48.762;8.996;2024-03-08T04:54:43;2.50;99.90
20690;DHT22;10504;48.762;8.996;2024-03-08T04:57:10;2.50;99.90
20690;DHT22;10504;48.762;8.996;2024-03-08T04:59:36;2.50;99.90
20690;DHT22;10504;48.762;8.996;2024-03-08T05:02:02;2.50;99.90
20690;DHT22;10504;48.762;8.996;2024-03-08T05:04:27;2.40;99.90
20690;DHT22;10504;48.762;8.996;2024-03-08T05:06:54;2.40;99.90
20690;DHT22;10504;48.762;8.996;2024-03-08T05:09:20;2.40;99.90
20690;DHT22;10504;48.762;8.996;2024-03-08T05:11:47;2.30;99.90
20690;DHT22;10504;48.762;8.996;2024-03-08T05:14:13;2.30;99.90
20690;DHT22;10504;48.762;8.996;2024-03-08T05:16:42;2.20;99.90
20690;DHT22;10504;48.762;8.996;2024-03-08T05:19:08;2.20;99.90
20690;DHT22;10504;48.762;8.996;2024-03-08T05:21:34;2.20;99.90
20690;DHT22;10504;48.762;8.996;2024-03-08T05:23:59;2.10;99.90
20690;DHT22;10504;48.762;8.996;2024-03-08T05:26:25;2.00;99.90
20690;DHT22;10504;48.762;8.996;2024-03-08T05:28:50;2.00;99.90
20690;DHT22;10504;48.762;8.996;2024-03-08T05:31:21;2.00;99.90
20690;DHT22;10504;48.762;8.996;2024-03-08T05:33:49;2.00;99.90
20690;DHT22;10504;48.762;8.996;2024-03-08T05:36:15;2.00;99.90
20690;DHT22;10504;48.762;8.996;2024-03-08T05:38:45;2.00;99.90
20690;DHT22;10504;48.762;8.996;2024-03-08T05:41:11;2.00;99.90
20690;DHT22;10504;48.762;8.996;2024-03-08T05:43:40;2.00;99.90
20690;DHT22;10504;48.762;8.996;2024-03-08T05:46:07;1.90;99.90
20690;DHT22;10504;48.762;8.996;2024-03-08T05:48:32;1.90;99.90
20690;DHT22;10504;48.762;8.996;2024-03-08T05:50:59;2.00;99.90
20690;DHT22;10504;48.762;8.996;2024-03-08T05:53:25;1.90;99.90
20690;DHT22;10504;48.762;8.996;2024-03-08T05:55:52;1.90;99.90
20690;DHT22;10504;48.762;8.996;2024-03-08T05:58:17;1.90;99.90
20690;DHT22;10504;48.762;8.996;2024-03-08T06:00:43;1.80;99.90
20690;DHT22;10504;48.762;8.996;2024-03-08T06:03:09;1.80;99.90
20690;DHT22;10504;48.762;8.996;2024-03-08T06:05:34;1.90;99.90
20690;DHT22;10504;48.762;8.996;2024-03-08T06:08:00;1.80;99.90
20690;DHT22;10504;48.762;8.996;2024-03-08T06:10:26;1.90;99.90
20690;DHT22;10504;48.762;8.996;2024-03-08T06:12:51;1.80;99.90
20690;DHT22;10504;48.762;8.996;2024-03-08T06:15:17;1.90;99.90
20690;DHT22;10504;48.762;8.996;2024-03-08T06:17:46;1.90;99.90
20690;DHT22;10504;48.762;8.996;2024-03-08T06:20:11;1.90;99.90
20690;DHT22;10504;48.762;8.996;2024-03-08T06:22:41;1.90;99.90
20690;DHT22;10504;48.762;8.996;2024-03-08T06:25:07;1.90;99.90
20690;DHT22;10504;48.762;8.996;2024-03-08T06:27:33;1.90;99.90
20690;DHT22;10504;48.762;8.996;2024-03-08T06:30:00;1.90;99.90
20690;DHT22;10504;48.762;8.996;2024-03-08T06:32:25;2.00;99.90
20690;DHT22;10504;48.762;8.996;2024-03-08T06:34:51;2.00;99.90
20690;DHT22;10504;48.762;8.996;2024-03-08T06:37:17;2.00;99.90
20690;DHT22;10504;48.762;8.996;2024-03-08T06:39:47;2.10;99.90
20690;DHT22;10504;48.762;8.996;2024-03-08T06:42:13;2.10;99.90
20690;DHT22;10504;48.762;8.996;2024-03-08T06:44:39;2.20;99.90
20690;DHT22;10504;48.762;8.996;2024-03-08T06:47:14;2.20;99.90
20690;DHT22;10504;48.762;8.996;2024-03-08T06:49:41;2.20;99.90
20690;DHT22;10504;48.762;8.996;2024-03-08T06:52:07;2.20;99.90
20690;DHT22;10504;48.762;8.996;2024-03-08T06:54:34;2.30;99.90
20690;DHT22;10504;48.762;8.996;2024-03-08T06:57:05;2.40;99.90
20690;DHT22;10504;48.762;8.996;2024-03-08T06:59:31;2.40;99.90
20690;DHT22;10504;48.762;8.996;2024-03-08T07:01:57;2.50;99.90
20690;DHT22;10504;48.762;8.996;2024-03-08T07:04:25;2.50;99.90
20690;DHT22;10504;48.762;8.996;2024-03-08T07:06:54;2.60;99.90
20690;DHT22;10504;48.762;8.996;2024-03-08T07:09:19;2.70;99.90
20690;DHT22;10504;48.762;8.996;2024-03-08T07:11:45;2.70;99.90
20690;DHT22;10504;48.762;8.996;2024-03-08T07:14:12;2.70;99.90
20690;DHT22;10504;48.762;8.996;2024-03-08T07:16:37;2.80;99.90
20690;DHT22;10504;48.762;8.996;2024-03-08T07:19:05;2.80;99.90
20690;DHT22;10504;48.762;8.996;2024-03-08T07:21:31;2.80;99.90
20690;DHT22;10504;48.762;8.996;2024-03-08T07:23:57;2.90;99.90
20690;DHT22;10504;48.762;8.996;2024-03-08T07:26:25;3.00;99.90
20690;DHT22;10504;48.762;8.996;2024-03-08T07:28:51;3.00;99.90
20690;DHT22;10504;48.762;8.996;2024-03-08T07:31:17;3.10;99.90
20690;DHT22;10504;48.762;8.996;2024-03-08T07:33:52;3.20;99.90
20690;DHT22;10504;48.762;8.996;2024-03-08T07:36:19;3.20;99.90
20690;DHT22;10504;48.762;8.996;2024-03-08T07:38:44;3.30;99.90
20690;DHT22;10504;48.762;8.996;2024-03-08T07:41:12;3.30;99.90
20690;DHT22;10504;48.762;8.996;2024-03-08T07:43:38;3.40;99.90
20690;DHT22;10504;48.762;8.996;2024-03-08T07:46:04;3.40;99.90
20690;DHT22;10504;48.762;8.996;2024-03-08T07:48:29;3.40;99.90
20690;DHT22;10504;48.762;8.996;2024-03-08T07:50:56;3.50;99.90
20690;DHT22;10504;48.762;8.996;2024-03-08T07:53:22;3.50;99.90
20690;DHT22;10504;48.762;8.996;2024-03-08T07:55:49;3.50;99.90
20690;DHT22;10504;48.762;8.996;2024-03-08T07:58:15;3.60;99.90
20690;DHT22;10504;48.762;8.996;2024-03-08T08:00:42;3.60;99.90
20690;DHT22;10504;48.762;8.996;2024-03-08T08:03:08;3.70;99.90
20690;DHT22;10504;48.762;8.996;2024-03-08T08:05:34;3.70;99.90
20690;DHT22;10504;48.762;8.996;2024-03-08T08:08:04;3.70;99.90
20690;DHT22;10504;48.762;8.996;2024-03-08T08:10:32;3.70;99.90
20690;DHT22;10504;48.762;8.996;2024-03-08T08:12:58;3.70;99.90
20690;DHT22;10504;48.762;8.996;2024-03-08T08:15:24;3.80;99.90
20690;DHT22;10504;48.762;8.996;2024-03-08T08:17:49;3.80;99.90
20690;DHT22;10504;48.762;8.996;2024-03-08T08:20:17;3.90;99.90
20690;DHT22;10504;48.762;8.996;2024-03-08T08:22:43;3.90;99.90
20690;DHT22;10504;48.762;8.996;2024-03-08T08:25:09;4.00;99.90
20690;DHT22;10504;48.762;8.996;2024-03-08T08:27:38;3.90;99.90
20690;DHT22;10504;48.762;8.996;2024-03-08T08:30:05;4.00;99.90
20690;DHT22;10504;48.762;8.996;2024-03-08T08:32:34;4.00;99.90
20690;DHT22;10504;48.762;8.996;2024-03-08T08:35:00;4.10;99.90
20690;DHT22;10504;48.762;8.996;2024-03-08T08:37:27;4.10;99.90
20690;DHT22;10504;48.762;8.996;2024-03-08T08:39:54;4.10;99.90
20690;DHT22;10504;48.762;8.996;2024-03-08T08:42:19;4.10;99.90
20690;DHT22;10504;48.762;8.996;2024-03-08T08:44:45;4.10;99.90
20690;DHT22;10504;48.762;8.996;2024-03-08T08:47:11;4.10;99.90
20690;DHT22;10504;48.762;8.996;2024-03-08T08:49:38;4.10;99.90
20690;DHT22;10504;48.762;8.996;2024-03-08T08:52:04;4.20;99.90
20690;DHT22;10504;48.762;8.996;2024-03-08T08:54:29;4.20;99.90
20690;DHT22;10504;48.762;8.996;2024-03-08T08:56:56;4.20;99.90
20690;DHT22;10504;48.762;8.996;2024-03-08T08:59:22;4.20;99.90
20690;DHT22;10504;48.762;8.996;2024-03-08T09:01:50;4.20;99.90
20690;DHT22;10504;48.762;8.996;2024-03-08T09:04:19;4.20;99.90
20690;DHT22;10504;48.762;8.996;2024-03-08T09:06:44;4.20;99.90
20690;DHT22;10504;48.762;8.996;2024-03-08T09:09:10;4.30;99.90
20690;DHT22;10504;48.762;8.996;2024-03-08T09:11:38;4.40;99.90
20690;DHT22;10504;48.762;8.996;2024-03-08T09:14:08;4.40;99.90
20690;DHT22;10504;48.762;8.996;2024-03-08T09:16:34;4.40;99.90
20690;DHT22;10504;48.762;8.996;2024-03-08T09:18:59;4.40;99.90
20690;DHT22;10504;48.762;8.996;2024-03-08T09:21:25;4.40;99.90
20690;DHT22;10504;48.762;8.996;2024-03-08T09:23:52;4.50;99.90
20690;DHT22;10504;48.762;8.996;2024-03-08T09:26:18;4.50;99.90
20690;DHT22;10504;48.762;8.996;2024-03-08T09:28:44;4.50;99.90
20690;DHT22;10504;48.762;8.996;2024-03-08T09:31:11;4.50;99.90
20690;DHT22;10504;48.762;8.996;2024-03-08T09:33:37;4.50;99.90
20690;DHT22;10504;48.762;8.996;2024-03-08T09:36:05;4.50;99.90
20690;DHT22;10504;48.762;8.996;2024-03-08T09:38:33;4.60;99.90
20690;DHT22;10504;48.762;8.996;2024-03-08T09:41:00;4.60;99.90
20690;DHT22;10504;48.762;8.996;2024-03-08T09:43:29;4.60;99.90
20690;DHT22;10504;48.762;8.996;2024-03-08T09:45:57;4.60;99.90
20690;DHT22;10504;48.762;8.996;2024-03-08T09:48:23;4.70;99.90
20690;DHT22;10504;48.762;8.996;2024-03-08T09:50:48;4.70;99.90
20690;DHT22;10504;48.762;8.996;2024-03-08T09:53:15;4.70;99.90
20690;DHT22;10504;48.762;8.996;2024-03-08T09:55:40;4.80;99.90
20690;DHT22;10504;48.762;8.996;2024-03-08T09:58:12;4.80;99.90
20690;DHT22;10504;48.762;8.996;2024-03-08T10:00:47;4.80;99.90
20690;DHT22;10504;48.762;8.996;2024-03-08T10:03:12;4.90;99.90
20690;DHT22;10504;48.762;8.996;2024-03-08T10:05:40;4.90;99.90
20690;DHT22;10504;48.762;8.996;2024-03-08T10:08:06;4.90;99.90
20690;DHT22;10504;48.762;8.996;2024-03-08T10:10:34;5.00;99.90
20690;DHT22;10504;48.762;8.996;2024-03-08T10:13:00;5.00;99.90
20690;DHT22;10504;48.762;8.996;2024-03-08T10:15:29;5.00;99.90
20690;DHT22;10504;48.762;8.996;2024-03-08T10:17:58;5.00;99.90
20690;DHT22;10504;48.762;8.996;2024-03-08T10:20:23;5.10;99.90
20690;DHT22;10504;48.762;8.996;2024-03-08T10:22:49;5.10;99.90
20690;DHT22;10504;48.762;8.996;2024-03-08T10:25:15;5.20;99.90
20690;DHT22;10504;48.762;8.996;2024-03-08T10:27:41;5.20;99.90
20690;DHT22;10504;48.762;8.996;2024-03-08T10:30:14;5.20;99.90
20690;DHT22;10504;48.762;8.996;2024-03-08T10:32:40;5.20;99.90
20690;DHT22;10504;48.762;8.996;2024-03-08T10:35:09;5.30;99.90
20690;DHT22;10504;48.762;8.996;2024-03-08T10:37:56;5.30;99.90
20690;DHT22;10504;48.762;8.996;2024-03-08T10:40:27;5.30;99.90
20690;DHT22;10504;48.762;8.996;2024-03-08T10:42:58;5.40;99.90
20690;DHT22;10504;48.762;8.996;2024-03-08T10:45:37;5.40;99.90
20690;DHT22;10504;48.762;8.996;2024-03-08T10:50:35;5.40;99.90
20690;DHT22;10504;48.762;8.996;2024-03-08T10:53:01;5.50;99.90
20690;DHT22;10504;48.762;8.996;2024-03-08T10:55:29;5.60;99.90
20690;DHT22;10504;48.762;8.996;2024-03-08T10:57:58;5.60;99.90
20690;DHT22;10504;48.762;8.996;2024-03-08T11:00:23;5.60;99.90
20690;DHT22;10504;48.762;8.996;2024-03-08T11:02:53;5.70;99.90
20690;DHT22;10504;48.762;8.996;2024-03-08T11:05:39;5.70;99.90
20690;DHT22;10504;48.762;8.996;2024-03-08T11:13:53;5.80;99.90
20690;DHT22;10504;48.762;8.996;2024-03-08T11:16:43;5.90;99.90
20690;DHT22;10504;48.762;8.996;2024-03-08T11:21:36;6.00;99.90
20690;DHT22;10504;48.762;8.996;2024-03-08T11:24:13;6.00;99.90
20690;DHT22;10504;48.762;8.996;2024-03-08T11:26:40;6.10;99.90
20690;DHT22;10504;48.762;8.996;2024-03-08T11:32:10;6.20;99.90
20690;DHT22;10504;48.762;8.996;2024-03-08T11:34:37;6.20;99.90
20690;DHT22;10504;48.762;8.996;2024-03-08T11:37:19;6.30;99.90
20690;DHT22;10504;48.762;8.996;2024-03-08T11:39:53;6.30;99.90
20690;DHT22;10504;48.762;8.996;2024-03-08T11:42:25;6.40;99.90
20690;DHT22;10504;48.762;8.996;2024-03-08T11:44:52;6.40;99.90
20690;DHT22;10504;48.762;8.996;2024-03-08T11:47:18;6.40;99.90
20690;DHT22;10504;48.762;8.996;2024-03-08T11:49:44;6.40;99.90
20690;DHT22;10504;48.762;8.996;2024-03-08T11:52:16;6.40;99.90
20690;DHT22;10504;48.762;8.996;2024-03-08T11:54:47;6.40;99.90
20690;DHT22;10504;48.762;8.996;2024-03-08T11:57:18;6.40;99.90
20690;DHT22;10504;48.762;8.996;2024-03-08T11:59:52;6.50;99.90
20690;DHT22;10504;48.762;8.996;2024-03-08T12:02:18;6.50;99.90
20690;DHT22;10504;48.762;8.996;2024-03-08T12:04:59;6.60;99.90
20690;DHT22;10504;48.762;8.996;2024-03-08T12:07:25;6.60;99.90
20690;DHT22;10504;48.762;8.996;2024-03-08T12:12:47;6.70;99.90
20690;DHT22;10504;48.762;8.996;2024-03-08T12:15:14;6.80;99.90
20690;DHT22;10504;48.762;8.996;2024-03-08T12:17:41;6.80;99.90
20690;DHT22;10504;48.762;8.996;2024-03-08T12:22:49;6.80;99.90
20690;DHT22;10504;48.762;8.996;2024-03-08T12:25:17;6.90;99.90
20690;DHT22;10504;48.762;8.996;2024-03-08T12:27:43;7.00;99.90
20690;DHT22;10504;48.762;8.996;2024-03-08T12:30:45;7.00;99.90
20690;DHT22;10504;48.762;8.996;2024-03-08T12:33:10;7.10;99.90
20690;DHT22;10504;48.762;8.996;2024-03-08T12:35:38;7.10;99.90
20690;DHT22;10504;48.762;8.996;2024-03-08T12:38:04;7.20;99.90
20690;DHT22;10504;48.762;8.996;2024-03-08T12:40:32;7.20;99.90
20690;DHT22;10504;48.762;8.996;2024-03-08T12:43:00;7.30;99.90
20690;DHT22;10504;48.762;8.996;2024-03-08T12:45:26;7.20;99.90
20690;DHT22;10504;48.762;8.996;2024-03-08T12:47:53;7.20;99.90
20690;DHT22;10504;48.762;8.996;2024-03-08T12:50:19;7.20;99.90
20690;DHT22;10504;48.762;8.996;2024-03-08T12:52:45;7.10;99.90
20690;DHT22;10504;48.762;8.996;2024-03-08T12:55:11;7.20;99.90
20690;DHT22;10504;48.762;8.996;2024-03-08T12:57:37;7.20;99.90
20690;DHT22;10504;48.762;8.996;2024-03-08T13:00:04;7.30;99.90
20690;DHT22;10504;48.762;8.996;2024-03-08T13:02:30;7.40;99.90
20690;DHT22;10504;48.762;8.996;2024-03-08T13:04:59;7.50;99.90
20690;DHT22;10504;48.762;8.996;2024-03-08T13:07:24;7.60;99.90
20690;DHT22;10504;48.762;8.996;2024-03-08T13:09:54;7.60;99.90
20690;DHT22;10504;48.762;8.996;2024-03-08T13:12:21;7.70;99.90
20690;DHT22;10504;48.762;8.996;2024-03-08T13:14:47;7.80;99.90
20690;DHT22;10504;48.762;8.996;2024-03-08T13:17:14;7.90;99.90
20690;DHT22;10504;48.762;8.996;2024-03-08T13:19:39;7.90;99.90
20690;DHT22;10504;48.762;8.996;2024-03-08T13:22:05;7.90;99.90
20690;DHT22;10504;48.762;8.996;2024-03-08T13:24:32;8.00;99.90
20690;DHT22;10504;48.762;8.996;2024-03-08T13:26:59;8.00;99.90
20690;DHT22;10504;48.762;8.996;2024-03-08T13:29:25;8.00;99.90
20690;DHT22;10504;48.762;8.996;2024-03-08T13:31:59;8.00;99.90
20690;DHT22;10504;48.762;8.996;2024-03-08T13:34:27;8.00;99.90
20690;DHT22;10504;48.762;8.996;2024-03-08T13:36:55;8.00;99.90
20690;DHT22;10504;48.762;8.996;2024-03-08T13:39:25;8.00;99.90
20690;DHT22;10504;48.762;8.996;2024-03-08T13:41:51;8.00;99.90
20690;DHT22;10504;48.762;8.996;2024-03-08T13:44:17;8.00;99.90
20690;DHT22;10504;48.762;8.996;2024-03-08T13:46:43;8.10;99.90
20690;DHT22;10504;48.762;8.996;2024-03-08T13:49:08;8.10;99.90
20690;DHT22;10504;48.762;8.996;2024-03-08T13:51:36;8.10;99.90
20690;DHT22;10504;48.762;8.996;2024-03-08T13:54:02;8.20;99.90
20690;DHT22;10504;48.762;8.996;2024-03-08T13:56:28;8.10;99.90
20690;DHT22;10504;48.762;8.996;2024-03-08T13:58:56;8.10;99.90
20690;DHT22;10504;48.762;8.996;2024-03-08T14:01:22;8.10;99.90
20690;DHT22;10504;48.762;8.996;2024-03-08T14:03:49;8.10;99.90
20690;DHT22;10504;48.762;8.996;2024-03-08T14:06:14;8.10;99.90
20690;DHT22;10504;48.762;8.996;2024-03-08T14:08:40;8.20;99.90
20690;DHT22;10504;48.762;8.996;2024-03-08T14:11:06;8.20;99.90
20690;DHT22;10504;48.762;8.996;2024-03-08T14:13:44;8.20;99.90
20690;DHT22;10504;48.762;8.996;2024-03-08T14:16:11;8.20;99.90
20690;DHT22;10504;48.762;8.996;2024-03-08T14:18:37;8.20;99.90
20690;DHT22;10504;48.762;8.996;2024-03-08T14:21:04;8.10;99.90
20690;DHT22;10504;48.762;8.996;2024-03-08T14:23:30;8.20;99.90
20690;DHT22;10504;48.762;8.996;2024-03-08T14:25:55;8.20;99.90
20690;DHT22;10504;48.762;8.996;2024-03-08T14:28:21;8.20;99.90
20690;DHT22;10504;48.762;8.996;2024-03-08T14:30:48;8.30;99.90
20690;DHT22;10504;48.762;8.996;2024-03-08T14:33:14;8.30;99.90
20690;DHT22;10504;48.762;8.996;2024-03-08T14:35:41;8.30;99.90
20690;DHT22;10504;48.762;8.996;2024-03-08T14:38:07;8.30;99.90
20690;DHT22;10504;48.762;8.996;2024-03-08T14:40:34;8.30;99.90
20690;DHT22;10504;48.762;8.996;2024-03-08T14:42:59;8.30;99.90
20690;DHT22;10504;48.762;8.996;2024-03-08T14:45:26;8.30;99.90
20690;DHT22;10504;48.762;8.996;2024-03-08T14:47:52;8.30;99.90
20690;DHT22;10504;48.762;8.996;2024-03-08T14:50:22;8.30;99.90
20690;DHT22;10504;48.762;8.996;2024-03-08T14:52:48;8.30;99.90
20690;DHT22;10504;48.762;8.996;2024-03-08T14:55:15;8.40;99.90
20690;DHT22;10504;48.762;8.996;2024-03-08T14:57:41;8.30;99.90
20690;DHT22;10504;48.762;8.996;2024-03-08T15:00:08;8.30;99.90
20690;DHT22;10504;48.762;8.996;2024-03-08T15:02:42;8.30;99.90
20690;DHT22;10504;48.762;8.996;2024-03-08T15:05:08;8.30;99.90
20690;DHT22;10504;48.762;8.996;2024-03-08T15:07:40;8.30;99.90
20690;DHT22;10504;48.762;8.996;2024-03-08T15:10:07;8.20;99.90
20690;DHT22;10504;48.762;8.996;2024-03-08T15:12:37;8.20;99.90
20690;DHT22;10504;48.762;8.996;2024-03-08T15:15:05;8.20;99.90
20690;DHT22;10504;48.762;8.996;2024-03-08T15:17:33;8.20;99.90
20690;DHT22;10504;48.762;8.996;2024-03-08T15:20:00;8.20;99.90
20690;DHT22;10504;48.762;8.996;2024-03-08T15:22:26;8.20;99.90
20690;DHT22;10504;48.762;8.996;2024-03-08T15:24:52;8.20;99.90
20690;DHT22;10504;48.762;8.996;2024-03-08T15:27:18;8.20;99.90
20690;DHT22;10504;48.762;8.996;2024-03-08T15:29:44;8.10;99.90
20690;DHT22;10504;48.762;8.996;2024-03-08T15:32:14;8.10;99.90
20690;DHT22;10504;48.762;8.996;2024-03-08T15:34:45;8.10;99.90
20690;DHT22;10504;48.762;8.996;2024-03-08T15:37:11;8.10;99.90
20690;DHT22;10504;48.762;8.996;2024-03-08T15:39:42;8.10;99.90
20690;DHT22;10504;48.762;8.996;2024-03-08T15:42:08;8.10;99.90
20690;DHT22;10504;48.762;8.996;2024-03-08T15:44:37;8.00;99.90
20690;DHT22;10504;48.762;8.996;2024-03-08T15:47:04;8.00;99.90
20690;DHT22;10504;48.762;8.996;2024-03-08T15:49:32;8.00;99.90
20690;DHT22;10504;48.762;8.996;2024-03-08T15:51:58;7.90;99.90
20690;DHT22;10504;48.762;8.996;2024-03-08T15:54:24;7.90;99.90
20690;DHT22;10504;48.762;8.996;2024-03-08T15:56:50;7.90;99.90
20690;DHT22;10504;48.762;8.996;2024-03-08T15:59:16;7.90;99.90
20690;DHT22;10504;48.762;8.996;2024-03-08T16:01:42;7.90;99.90
20690;DHT22;10504;48.762;8.996;2024-03-08T16:04:14;7.90;99.90
20690;DHT22;10504;48.762;8.996;2024-03-08T16:06:40;7.90;99.90